createdAt,value
2023-03-15T00:41:01.772Z,0.00
2023-03-15T00:42:01.781Z,0.00
2023-03-15T00:43:01.787Z,0.00
2023-03-15T00:44:01.832Z,0.00
2023-03-15T00:45:01.870Z,0.00
2023-03-15T00:46:01.869Z,0.00
2023-03-15T00:47:02.169Z,0.00
2023-03-15T00:48:01.922Z,0.00
2023-03-15T00:49:01.962Z,0.00
2023-03-15T00:50:01.991Z,0.00
2023-03-15T00:51:02.009Z,0.00
2023-03-15T00:52:02.031Z,0.00
2023-03-15T00:53:02.173Z,0.00
2023-03-15T00:54:02.380Z,0.00
2023-03-15T00:55:02.120Z,0.00
2023-03-15T00:56:02.142Z,0.00
2023-03-15T00:57:02.194Z,0.00
2023-03-15T00:58:02.194Z,0.00
2023-03-15T00:59:02.234Z,0.00
2023-03-15T01:00:02.269Z,0.00
2023-03-15T01:01:02.574Z,0.00
2023-03-15T01:02:02.379Z,0.00
2023-03-15T01:03:02.419Z,0.00
2023-03-15T01:04:02.360Z,0.00
2023-03-15T01:05:02.376Z,0.00
2023-03-15T01:06:02.416Z,0.00
2023-03-15T01:07:02.430Z,0.00
2023-03-15T01:08:02.815Z,0.00
2023-03-15T01:09:02.486Z,0.00
2023-03-15T01:10:02.521Z,0.00
2023-03-15T01:11:02.543Z,0.00
2023-03-15T01:12:02.566Z,0.00
2023-03-15T01:13:02.613Z,0.00
2023-03-15T01:14:02.621Z,0.00
2023-03-15T01:15:02.946Z,0.00
2023-03-15T01:16:02.759Z,0.00
2023-03-15T01:17:02.715Z,0.00
2023-03-15T01:18:02.768Z,0.00
2023-03-15T01:19:02.756Z,0.00
2023-03-15T01:20:02.781Z,0.00
2023-03-15T01:21:02.806Z,0.00
2023-03-15T01:22:03.135Z,0.00
2023-03-15T01:23:02.859Z,0.00
2023-03-15T01:24:02.886Z,0.00
2023-03-15T01:25:02.925Z,0.00
2023-03-15T01:26:02.952Z,0.00
2023-03-15T01:27:02.971Z,0.00
2023-03-15T01:28:03.017Z,0.00
2023-03-15T01:29:03.342Z,0.00
2023-03-15T01:30:03.096Z,0.00
2023-03-15T01:31:03.193Z,0.00
2023-03-15T01:32:03.159Z,0.00
2023-03-15T01:33:03.156Z,0.00
2023-03-15T01:34:03.148Z,0.00
2023-03-15T01:35:03.181Z,0.00
2023-03-15T01:36:03.510Z,0.00
2023-03-15T01:37:03.239Z,0.00
2023-03-15T01:38:03.255Z,0.00
2023-03-15T01:39:03.284Z,0.00
2023-03-15T01:40:03.329Z,0.00
2023-03-15T01:41:03.349Z,0.00
2023-03-15T01:42:03.376Z,0.00
2023-03-15T01:43:03.693Z,0.00
2023-03-15T01:44:03.421Z,0.00
2023-03-15T01:45:03.464Z,0.00
2023-03-15T01:46:03.471Z,0.00
2023-03-15T01:47:03.554Z,0.00
2023-03-15T01:48:03.521Z,0.00
2023-03-15T01:49:03.852Z,0.00
2023-03-15T01:50:03.581Z,0.00
2023-03-15T01:51:03.606Z,0.00
2023-03-15T01:52:03.690Z,0.00
2023-03-15T01:53:03.658Z,0.00
2023-03-15T01:54:03.693Z,0.00
2023-03-15T01:55:04.011Z,0.00
2023-03-15T01:56:03.740Z,0.00
2023-03-15T01:57:03.763Z,0.00
2023-03-15T01:58:03.785Z,0.00
2023-03-15T01:59:03.832Z,0.00
2023-03-15T02:00:03.851Z,0.00
2023-03-15T02:01:04.349Z,0.00
2023-03-15T02:02:03.946Z,0.00
2023-03-15T02:03:03.941Z,0.00
2023-03-15T02:04:03.970Z,0.00
2023-03-15T02:05:03.981Z,0.00
2023-03-15T02:06:04.024Z,0.00
2023-03-15T02:07:04.054Z,0.00
2023-03-15T02:08:04.355Z,0.00
2023-03-15T02:10:41.242Z,0.00
2023-03-15T02:11:41.264Z,0.00
2023-03-15T02:12:41.290Z,0.00
2023-03-15T02:13:41.323Z,0.00
2023-03-15T02:14:41.343Z,0.00
2023-03-15T02:15:41.375Z,0.00
2023-03-15T02:16:41.827Z,0.00
2023-03-15T02:17:41.457Z,0.00
2023-03-15T02:18:41.460Z,0.00
2023-03-15T02:19:41.612Z,0.00
2023-03-15T02:20:41.539Z,0.00
2023-03-15T02:21:41.542Z,0.00
2023-03-15T02:22:41.856Z,0.00
2023-03-15T02:23:41.582Z,0.00
2023-03-15T02:24:41.609Z,0.00
2023-03-15T02:25:41.642Z,0.00
2023-03-15T02:26:41.659Z,0.00
2023-03-15T02:27:41.688Z,0.00
2023-03-15T02:28:41.971Z,0.00
2023-03-15T02:29:41.749Z,0.00
2023-03-15T02:30:41.769Z,0.00
2023-03-15T02:31:41.850Z,0.00
2023-03-15T02:32:41.866Z,0.00
2023-03-15T02:33:41.870Z,0.00
2023-03-15T02:34:42.172Z,0.00
2023-03-15T02:35:41.907Z,0.00
2023-03-15T02:36:41.923Z,0.00
2023-03-15T02:37:41.952Z,0.00
2023-03-15T02:38:41.981Z,0.00
2023-03-15T02:39:42.003Z,0.00
2023-03-15T02:40:42.035Z,0.00
2023-03-15T02:41:42.391Z,0.00
2023-03-15T02:42:42.080Z,0.00
2023-03-15T02:43:42.112Z,0.00
2023-03-15T02:44:42.137Z,0.00
2023-03-15T02:45:42.342Z,0.00
2023-03-15T02:46:42.188Z,0.00
2023-03-15T02:47:42.221Z,0.00
2023-03-15T02:48:42.562Z,0.00
2023-03-15T02:49:42.267Z,0.00
2023-03-15T02:50:42.295Z,0.00
2023-03-15T02:51:42.335Z,0.00
2023-03-15T02:52:42.352Z,0.00
2023-03-15T02:53:42.386Z,0.00
2023-03-15T02:54:42.401Z,0.00
2023-03-15T02:55:42.731Z,0.00
2023-03-15T02:56:42.460Z,0.00
2023-03-15T02:57:42.491Z,0.00
2023-03-15T02:58:42.516Z,0.00
2023-03-15T02:59:42.658Z,0.00
2023-03-15T03:00:42.656Z,0.00
2023-03-15T03:01:42.640Z,0.00
2023-03-15T03:02:42.989Z,0.00
2023-03-15T03:03:42.649Z,0.00
2023-03-15T03:04:42.704Z,0.00
2023-03-15T03:05:42.699Z,0.00
2023-03-15T03:06:42.723Z,0.00
2023-03-15T03:07:42.778Z,0.00
2023-03-15T03:08:42.778Z,0.00
2023-03-15T03:09:43.054Z,0.00
2023-03-15T03:10:42.832Z,0.00
2023-03-15T03:11:42.873Z,0.00
2023-03-15T03:12:42.881Z,0.00
2023-03-15T03:13:42.909Z,0.00
2023-03-15T03:14:42.941Z,0.00
2023-03-15T03:15:44.024Z,0.00
2023-03-15T03:16:43.322Z,0.00
2023-03-15T03:17:43.018Z,0.00
2023-03-15T03:18:43.041Z,0.00
2023-03-15T03:19:43.068Z,0.00
2023-03-15T03:20:43.249Z,0.00
2023-03-15T03:21:43.130Z,0.00
2023-03-15T03:22:43.159Z,0.00
2023-03-15T03:23:43.472Z,0.00
2023-03-15T03:26:43.254Z,0.00
2023-03-15T03:27:43.281Z,0.00
2023-03-15T03:28:43.302Z,0.00
2023-03-15T03:29:43.338Z,0.00
2023-03-15T03:30:43.657Z,0.00
2023-03-15T03:31:43.395Z,0.00
2023-03-15T03:32:43.538Z,0.00
2023-03-15T03:33:43.431Z,0.00
2023-03-15T03:34:43.469Z,0.00
2023-03-15T03:35:43.492Z,0.00
2023-03-15T03:36:43.537Z,0.00
2023-03-15T03:37:43.862Z,0.00
2023-03-15T03:38:43.669Z,0.00
2023-03-15T03:39:43.594Z,0.00
2023-03-15T03:40:43.627Z,0.00
2023-03-15T03:41:43.651Z,0.00
2023-03-15T03:42:43.673Z,0.00
2023-03-15T03:43:43.698Z,0.00
2023-03-15T03:44:44.028Z,0.00
2023-03-15T03:45:43.779Z,0.00
2023-03-15T03:46:43.802Z,0.00
2023-03-15T03:47:43.809Z,0.00
2023-03-15T03:48:43.836Z,0.00
2023-03-15T03:49:43.863Z,0.00
2023-03-15T03:50:43.891Z,0.00
2023-03-15T03:51:44.217Z,0.00
2023-03-15T03:52:44.000Z,0.00
2023-03-15T03:53:43.968Z,0.00
2023-03-15T03:54:43.996Z,0.00
2023-03-15T03:55:44.020Z,0.00
2023-03-15T03:56:44.056Z,0.00
2023-03-15T03:57:44.076Z,0.00
2023-03-15T03:58:44.359Z,0.00
2023-03-15T03:59:44.131Z,0.00
2023-03-15T04:00:44.165Z,0.00
2023-03-15T04:01:44.183Z,0.00
2023-03-15T04:02:44.289Z,0.00
2023-03-15T04:03:44.237Z,0.00
2023-03-15T04:04:44.633Z,0.00
2023-03-15T04:05:44.293Z,0.00
2023-03-15T04:06:44.315Z,0.00
2023-03-15T04:07:44.341Z,0.00
2023-03-15T04:08:44.429Z,0.00
2023-03-15T04:09:44.399Z,0.00
2023-03-15T04:10:44.727Z,0.00
2023-03-15T04:11:44.479Z,0.00
2023-03-15T04:12:44.526Z,0.00
2023-03-15T04:14:44.530Z,0.00
2023-03-15T04:15:44.577Z,0.00
2023-03-15T04:16:44.852Z,0.00
2023-03-15T04:17:44.613Z,0.00
2023-03-15T04:18:44.649Z,0.00
2023-03-15T04:19:44.672Z,0.00
2023-03-15T04:20:44.699Z,0.00
2023-03-15T04:21:44.722Z,0.00
2023-03-15T04:22:44.745Z,0.00
2023-03-15T04:23:45.028Z,0.00
2023-03-15T04:24:44.873Z,0.00
2023-03-15T04:25:44.846Z,0.00
2023-03-15T04:26:44.854Z,0.00
2023-03-15T04:27:44.884Z,0.00
2023-03-15T04:28:44.914Z,0.00
2023-03-15T04:29:44.942Z,0.00
2023-03-15T04:30:45.274Z,0.00
2023-03-15T04:31:45.043Z,0.00
2023-03-15T04:32:45.080Z,0.00
2023-03-15T04:33:45.057Z,0.00
2023-03-15T04:34:45.068Z,0.00
2023-03-15T04:35:45.126Z,0.00
2023-03-15T04:36:45.127Z,0.00
2023-03-15T04:37:45.456Z,0.00
2023-03-15T04:38:45.181Z,0.00
2023-03-15T04:39:45.212Z,0.00
2023-03-15T04:40:45.253Z,0.00
2023-03-15T04:41:45.367Z,0.00
2023-03-15T04:42:45.290Z,0.00
2023-03-15T04:43:45.317Z,0.00
2023-03-15T04:44:45.643Z,0.00
2023-03-15T04:45:45.371Z,0.00
2023-03-15T04:46:45.511Z,0.00
2023-03-15T04:47:45.425Z,0.00
2023-03-15T04:48:45.460Z,0.00
2023-03-15T04:49:45.482Z,0.00
2023-03-15T04:50:45.514Z,0.00
2023-03-15T04:51:45.868Z,0.00
2023-03-15T04:52:45.557Z,0.00
2023-03-15T04:53:45.588Z,0.00
2023-03-15T04:54:45.612Z,0.00
2023-03-15T04:55:45.642Z,0.00
2023-03-15T04:56:45.690Z,0.00
2023-03-15T04:57:45.702Z,0.00
2023-03-15T04:58:46.056Z,0.00
2023-03-15T04:59:45.756Z,0.00
2023-03-15T05:00:45.804Z,0.00
2023-03-15T05:01:45.835Z,0.00
2023-03-15T05:02:45.827Z,0.00
2023-03-15T05:03:45.864Z,0.00
2023-03-15T05:04:45.893Z,0.00
2023-03-15T05:05:46.211Z,0.00
2023-03-15T05:06:45.935Z,0.00
2023-03-15T05:07:45.969Z,0.00
2023-03-15T05:08:45.988Z,0.00
2023-03-15T05:09:46.036Z,0.00
2023-03-15T05:10:46.050Z,0.00
2023-03-15T05:11:46.070Z,0.00
2023-03-15T05:12:46.468Z,0.00
2023-03-15T05:13:46.123Z,0.00
2023-03-15T05:14:46.199Z,0.00
2023-03-15T05:15:46.193Z,0.00
2023-03-15T05:16:46.209Z,0.00
2023-03-15T05:18:46.262Z,0.00
2023-03-15T05:19:46.543Z,0.00
2023-03-15T05:20:46.319Z,0.00
2023-03-15T05:21:46.350Z,0.00
2023-03-15T05:22:46.367Z,0.00
2023-03-15T05:23:46.390Z,0.00
2023-03-15T05:24:46.426Z,0.00
2023-03-15T05:25:46.448Z,4.00
2023-03-15T05:26:46.777Z,4.00
2023-03-15T05:27:46.515Z,4.00
2023-03-15T05:28:46.552Z,0.00
2023-03-15T05:29:46.561Z,4.00
2023-03-15T05:30:46.590Z,4.00
2023-03-15T05:31:46.680Z,4.00
2023-03-15T05:32:46.669Z,4.00
2023-03-15T05:33:47.223Z,4.00
2023-03-15T05:34:46.693Z,8.00
2023-03-15T05:35:46.798Z,12.00
2023-03-15T05:36:46.749Z,8.00
2023-03-15T05:37:46.776Z,12.00
2023-03-15T05:38:46.796Z,8.00
2023-03-15T05:39:46.823Z,12.00
2023-03-15T05:40:47.155Z,16.00
2023-03-15T05:41:46.872Z,16.00
2023-03-15T05:42:46.904Z,16.00
2023-03-15T05:43:46.976Z,20.00
2023-03-15T05:44:46.980Z,20.00
2023-03-15T05:45:47.027Z,24.00
2023-03-15T05:46:47.007Z,24.00
2023-03-15T05:47:47.340Z,32.00
2023-03-15T05:48:47.086Z,36.00
2023-03-15T05:49:47.153Z,36.00
2023-03-15T05:50:47.131Z,36.00
2023-03-15T05:51:47.156Z,44.00
2023-03-15T05:52:47.177Z,40.00
2023-03-15T05:53:47.214Z,44.00
2023-03-15T05:54:47.581Z,52.00
2023-03-15T05:55:47.256Z,48.00
2023-03-15T05:56:47.286Z,56.00
2023-03-15T05:57:47.305Z,64.00
2023-03-15T05:58:47.348Z,60.00
2023-03-15T05:59:47.366Z,68.00
2023-03-15T06:00:47.711Z,68.00
2023-03-15T06:01:47.412Z,76.00
2023-03-15T06:02:47.744Z,84.00
2023-03-15T06:03:47.598Z,84.00
2023-03-15T06:04:47.496Z,84.00
2023-03-15T06:05:47.526Z,76.00
2023-03-15T06:06:47.804Z,92.00
2023-03-15T06:07:47.590Z,96.00
2023-03-15T06:08:47.622Z,80.00
2023-03-15T06:09:47.645Z,80.00
2023-03-15T06:10:47.665Z,112.00
2023-03-15T06:11:47.683Z,108.00
2023-03-15T06:12:48.011Z,112.00
2023-03-15T06:13:47.740Z,124.00
2023-03-15T06:14:47.767Z,124.00
2023-03-15T06:15:47.797Z,144.00
2023-03-15T06:16:47.897Z,164.00
2023-03-15T06:17:47.856Z,168.00
2023-03-15T06:18:48.020Z,160.00
2023-03-15T06:20:47.938Z,216.00
2023-03-15T06:21:47.967Z,236.00
2023-03-15T06:22:48.006Z,248.00
2023-03-15T06:23:48.009Z,268.00
2023-03-15T06:24:48.145Z,276.00
2023-03-15T06:25:48.072Z,272.00
2023-03-15T06:26:48.102Z,296.00
2023-03-15T06:27:48.119Z,316.00
2023-03-15T06:28:48.137Z,320.00
2023-03-15T06:29:48.180Z,332.00
2023-03-15T06:30:48.272Z,316.00
2023-03-15T06:31:48.526Z,300.00
2023-03-15T06:32:48.340Z,352.00
2023-03-15T06:33:48.288Z,412.00
2023-03-15T06:34:48.310Z,384.00
2023-03-15T06:35:48.615Z,432.00
2023-03-15T06:36:48.359Z,464.00
2023-03-15T06:37:48.398Z,496.00
2023-03-15T06:38:48.726Z,536.00
2023-03-15T06:39:48.445Z,504.00
2023-03-15T06:40:48.465Z,500.00
2023-03-15T06:41:48.516Z,528.00
2023-03-15T06:42:48.526Z,544.00
2023-03-15T06:43:48.572Z,588.00
2023-03-15T06:44:50.777Z,644.00
2023-03-15T06:45:48.929Z,704.00
2023-03-15T06:47:48.666Z,740.00
2023-03-15T06:48:48.713Z,736.00
2023-03-15T06:49:48.763Z,784.00
2023-03-15T06:50:48.746Z,816.00
2023-03-15T06:51:48.765Z,700.00
2023-03-15T06:52:49.096Z,676.00
2023-03-15T06:53:48.895Z,740.00
2023-03-15T06:54:48.846Z,712.00
2023-03-15T06:55:48.881Z,780.00
2023-03-15T06:56:48.912Z,856.00
2023-03-15T06:57:48.937Z,936.00
2023-03-15T06:58:49.260Z,928.00
2023-03-15T06:59:48.987Z,916.00
2023-03-15T07:00:49.021Z,1012.00
2023-03-15T07:01:49.074Z,1040.00
2023-03-15T07:02:49.104Z,1096.00
2023-03-15T07:03:49.095Z,1056.00
2023-03-15T07:04:49.453Z,932.00
2023-03-15T07:05:49.153Z,980.00
2023-03-15T07:06:49.233Z,1120.00
2023-03-15T07:07:49.246Z,1244.00
2023-03-15T07:08:49.240Z,1232.00
2023-03-15T07:09:49.262Z,1252.00
2023-03-15T07:10:49.734Z,1156.00
2023-03-15T07:11:49.318Z,980.00
2023-03-15T07:12:49.345Z,988.00
2023-03-15T07:13:49.367Z,924.00
2023-03-15T07:14:49.412Z,828.00
2023-03-15T07:15:49.436Z,868.00
2023-03-15T07:16:49.460Z,956.00
2023-03-15T07:17:49.779Z,784.00
2023-03-15T07:18:49.506Z,824.00
2023-03-15T07:19:56.273Z,816.00
2023-03-15T07:21:49.614Z,720.00
2023-03-15T07:22:49.618Z,532.00
2023-03-15T07:23:49.704Z,512.00
2023-03-15T07:24:49.973Z,556.00
2023-03-15T07:25:54.928Z,620.00
2023-03-15T07:27:49.755Z,756.00
2023-03-15T07:28:49.785Z,800.00
2023-03-15T07:29:49.806Z,736.00
2023-03-15T07:30:49.830Z,592.00
2023-03-15T07:31:50.305Z,520.00
2023-03-15T07:32:50.070Z,508.00
2023-03-15T07:33:49.915Z,544.00
2023-03-15T07:34:49.941Z,656.00
2023-03-15T07:35:50.025Z,748.00
2023-03-15T07:36:49.993Z,876.00
2023-03-15T07:37:50.062Z,860.00
2023-03-15T07:38:50.348Z,1212.00
2023-03-15T07:39:50.075Z,1300.00
2023-03-15T07:40:50.108Z,1336.00
2023-03-15T07:42:50.158Z,1340.00
2023-03-15T07:43:50.180Z,1408.00
2023-03-15T07:44:50.219Z,1348.00
2023-03-15T07:45:50.549Z,1228.00
2023-03-15T07:46:50.315Z,1320.00
2023-03-15T07:47:50.293Z,1300.00
2023-03-15T07:48:50.326Z,1312.00
2023-03-15T07:49:50.348Z,1252.00
2023-03-15T07:50:50.373Z,1416.00
2023-03-15T07:51:50.401Z,1548.00
2023-03-15T07:52:51.591Z,1500.00
2023-03-15T07:53:50.482Z,1440.00
2023-03-15T07:54:50.483Z,1484.00
2023-03-15T07:55:50.507Z,1396.00
2023-03-15T07:56:50.538Z,1316.00
2023-03-15T07:57:52.865Z,1376.00
2023-03-15T07:58:50.593Z,1484.00
2023-03-15T07:59:50.916Z,1460.00
2023-03-15T08:00:50.648Z,1328.00
2023-03-15T08:01:50.703Z,1312.00
2023-03-15T08:02:50.741Z,1288.00
2023-03-15T08:03:50.724Z,1396.00
2023-03-15T08:04:50.758Z,1440.00
2023-03-15T08:06:51.116Z,1572.00
2023-03-15T08:07:50.954Z,1656.00
2023-03-15T08:08:50.859Z,1768.00
2023-03-15T08:09:50.935Z,1780.00
2023-03-15T08:10:50.914Z,1808.00
2023-03-15T08:11:50.940Z,1836.00
2023-03-15T08:12:50.964Z,1748.00
2023-03-15T08:13:51.311Z,1724.00
2023-03-15T08:14:51.174Z,1672.00
2023-03-15T08:15:51.180Z,1556.00
2023-03-15T08:16:51.137Z,1608.00
2023-03-15T08:17:51.177Z,1736.00
2023-03-15T08:18:51.231Z,1792.00
2023-03-15T08:19:51.268Z,1736.00
2023-03-15T08:20:51.759Z,1568.00
2023-03-15T08:21:51.220Z,1548.00
2023-03-15T08:22:51.378Z,1568.00
2023-03-15T08:23:51.273Z,1700.00
2023-03-15T08:24:51.400Z,1836.00
2023-03-15T08:25:51.351Z,1888.00
2023-03-15T08:26:51.426Z,1908.00
2023-03-15T08:27:51.750Z,1896.00
2023-03-15T08:28:51.466Z,1908.00
2023-03-15T08:29:53.316Z,1936.00
2023-03-15T08:30:51.562Z,1996.00
2023-03-15T08:31:51.749Z,1980.00
2023-03-15T08:32:51.655Z,1844.00
2023-03-15T08:33:51.550Z,1744.00
2023-03-15T08:34:51.632Z,1732.00
2023-03-15T08:35:51.656Z,1872.00
2023-03-15T08:36:51.703Z,2016.00
2023-03-15T08:37:51.664Z,2068.00
2023-03-15T08:38:51.683Z,2012.00
2023-03-15T08:39:51.713Z,1968.00
2023-03-15T08:40:52.036Z,1916.00
2023-03-15T08:41:51.791Z,1888.00
2023-03-15T08:42:51.797Z,1924.00
2023-03-15T08:43:51.830Z,2040.00
2023-03-15T08:44:51.903Z,2120.00
2023-03-15T08:46:00.836Z,2148.00
2023-03-15T08:46:51.954Z,2208.00
2023-03-15T08:47:51.929Z,2376.00
2023-03-15T08:48:51.961Z,2516.00
2023-03-15T08:49:51.982Z,2504.00
2023-03-15T08:50:52.007Z,2436.00
2023-03-15T08:51:52.039Z,2424.00
2023-03-15T08:52:52.068Z,2460.00
2023-03-15T08:53:52.106Z,2464.00
2023-03-15T08:54:52.118Z,2496.00
2023-03-15T08:55:52.142Z,2596.00
2023-03-15T08:56:52.271Z,2776.00
2023-03-15T08:57:52.236Z,2976.00
2023-03-15T08:58:52.500Z,3148.00
2023-03-15T08:59:52.275Z,2980.00
2023-03-15T09:00:52.289Z,2788.00
2023-03-15T09:01:52.407Z,2708.00
2023-03-15T09:02:52.414Z,2732.00
2023-03-15T09:03:52.432Z,2820.00
2023-03-15T09:04:53.490Z,2916.00
2023-03-15T09:05:52.669Z,3008.00
2023-03-15T09:06:52.444Z,3048.00
2023-03-15T09:07:52.576Z,2920.00
2023-03-15T09:08:52.501Z,2640.00
2023-03-15T09:09:52.827Z,2416.00
2023-03-15T09:10:52.560Z,2332.00
2023-03-15T09:11:52.855Z,2048.00
2023-03-15T09:12:52.912Z,1944.00
2023-03-15T09:13:52.661Z,1892.00
2023-03-15T09:14:52.675Z,1760.00
2023-03-15T09:15:52.691Z,1912.00
2023-03-15T09:16:52.799Z,1812.00
2023-03-15T09:17:52.761Z,1816.00
2023-03-15T09:18:52.775Z,1760.00
2023-03-15T09:19:53.104Z,1684.00
2023-03-15T09:20:52.838Z,1648.00
2023-03-15T09:21:52.870Z,1644.00
2023-03-15T09:22:52.901Z,1640.00
2023-03-15T09:23:52.938Z,1652.00
2023-03-15T09:24:52.946Z,1680.00
2023-03-15T09:25:52.981Z,1660.00
2023-03-15T09:26:53.306Z,1636.00
2023-03-15T09:27:53.029Z,1636.00
2023-03-15T09:28:53.067Z,1640.00
2023-03-15T09:29:53.107Z,1648.00
2023-03-15T09:30:53.172Z,1656.00
2023-03-15T09:31:53.158Z,1684.00
2023-03-15T09:32:53.259Z,1688.00
2023-03-15T09:33:53.501Z,1716.00
2023-03-15T09:34:53.231Z,1740.00
2023-03-15T09:35:53.318Z,1756.00
2023-03-15T09:36:53.276Z,1716.00
2023-03-15T09:37:53.308Z,1676.00
2023-03-15T09:38:53.358Z,1684.00
2023-03-15T09:39:53.384Z,1720.00
2023-03-15T09:40:53.643Z,1764.00
2023-03-15T09:41:53.416Z,1844.00
2023-03-15T09:42:53.449Z,1924.00
2023-03-15T09:43:53.487Z,1968.00
2023-03-15T09:44:53.507Z,1932.00
2023-03-15T09:45:53.606Z,1844.00
2023-03-15T09:46:53.756Z,1840.00
2023-03-15T09:47:53.834Z,1848.00
2023-03-15T09:48:53.620Z,1844.00
2023-03-15T09:49:53.641Z,1856.00
2023-03-15T09:50:53.664Z,1896.00
2023-03-15T09:51:53.700Z,1928.00
2023-03-15T09:52:53.722Z,1900.00
2023-03-15T09:53:53.752Z,1892.00
2023-03-15T09:54:54.026Z,1992.00
2023-03-15T09:55:53.803Z,2124.00
2023-03-15T09:56:53.833Z,2296.00
2023-03-15T09:57:53.865Z,2440.00
2023-03-15T09:58:53.884Z,2516.00
2023-03-15T09:59:53.914Z,2420.00
2023-03-15T10:00:53.943Z,2496.00
2023-03-15T10:01:54.428Z,2372.00
2023-03-15T10:02:53.994Z,2196.00
2023-03-15T10:03:54.072Z,2196.00
2023-03-15T10:04:54.053Z,2276.00
2023-03-15T10:05:54.098Z,2412.00
2023-03-15T10:06:54.193Z,2528.00
2023-03-15T10:08:54.470Z,2404.00
2023-03-15T10:09:54.196Z,2408.00
2023-03-15T10:10:54.221Z,2424.00
2023-03-15T10:11:54.245Z,2468.00
2023-03-15T10:12:54.278Z,2636.00
2023-03-15T10:13:54.312Z,2916.00
2023-03-15T10:14:54.327Z,3152.00
2023-03-15T10:15:54.675Z,3292.00
2023-03-15T10:16:54.392Z,3168.00
2023-03-15T10:17:54.452Z,3052.00
2023-03-15T10:18:54.443Z,3188.00
2023-03-15T10:19:54.468Z,3500.00
2023-03-15T10:20:54.573Z,3804.00
2023-03-15T10:21:54.529Z,3888.00
2023-03-15T10:22:54.852Z,3984.00
2023-03-15T10:23:54.580Z,3964.00
2023-03-15T10:24:54.619Z,3948.00
2023-03-15T10:25:54.671Z,3936.00
2023-03-15T10:26:54.674Z,3944.00
2023-03-15T10:27:54.698Z,3820.00
2023-03-15T10:28:55.057Z,3856.00
2023-03-15T10:29:54.787Z,3868.00
2023-03-15T10:30:54.844Z,3744.00
2023-03-15T10:31:54.892Z,3464.00
2023-03-15T10:32:54.914Z,3236.00
2023-03-15T10:33:54.877Z,3208.00
2023-03-15T10:34:54.917Z,2964.00
2023-03-15T10:36:04.382Z,2600.00
2023-03-15T10:36:54.948Z,2344.00
2023-03-15T10:37:54.970Z,2060.00
2023-03-15T10:38:54.994Z,2052.00
2023-03-15T10:39:55.022Z,2172.00
2023-03-15T10:40:55.083Z,2488.00
2023-03-15T10:41:55.080Z,2612.00
2023-03-15T10:42:55.109Z,2700.00
2023-03-15T10:43:55.131Z,2792.00
2023-03-15T10:44:55.166Z,2904.00
2023-03-15T10:45:55.195Z,2988.00
2023-03-15T10:46:55.637Z,3084.00
2023-03-15T10:48:00.287Z,3272.00
2023-03-15T10:48:55.274Z,3368.00
2023-03-15T10:49:55.333Z,3392.00
2023-03-15T10:50:55.329Z,3284.00
2023-03-15T10:51:55.356Z,3000.00
2023-03-15T10:52:55.386Z,2676.00
2023-03-15T10:53:55.410Z,2620.00
2023-03-15T10:55:03.958Z,2640.00
2023-03-15T10:55:55.487Z,2632.00
2023-03-15T10:56:55.493Z,2576.00
2023-03-15T10:57:55.526Z,2552.00
2023-03-15T10:59:11.490Z,2564.00
2023-03-15T10:59:55.578Z,2580.00
2023-03-15T11:00:55.608Z,2576.00
2023-03-15T11:02:55.692Z,2540.00
2023-03-15T11:04:55.716Z,2584.00
2023-03-15T11:05:56.067Z,2632.00
2023-03-15T11:06:55.780Z,2912.00
2023-03-15T11:07:55.858Z,2944.00
2023-03-15T11:08:55.852Z,2764.00
2023-03-15T11:09:55.883Z,2672.00
2023-03-15T11:10:55.904Z,2700.00
2023-03-15T11:11:56.436Z,2564.00
2023-03-15T11:12:56.012Z,2624.00
2023-03-15T11:13:57.392Z,2616.00
2023-03-15T11:14:56.591Z,2788.00
2023-03-15T11:15:56.124Z,2808.00
2023-03-15T11:16:56.252Z,2720.00
2023-03-15T11:17:56.469Z,2608.00
2023-03-15T11:18:56.167Z,2660.00
2023-03-15T11:19:56.910Z,2768.00
2023-03-15T11:20:56.202Z,2872.00
2023-03-15T11:21:56.280Z,3072.00
2023-03-15T11:22:56.239Z,3220.00
2023-03-15T11:23:56.721Z,3268.00
2023-03-15T11:24:56.649Z,3288.00
2023-03-15T11:25:56.372Z,3396.00
2023-03-15T11:26:56.402Z,3560.00
2023-03-15T11:27:56.735Z,3696.00
2023-03-15T11:28:58.291Z,3824.00
2023-03-15T11:29:56.437Z,3840.00
2023-03-15T11:30:56.764Z,3744.00
2023-03-15T11:31:56.611Z,3608.00
2023-03-15T11:32:56.591Z,3600.00
2023-03-15T11:33:56.562Z,3704.00
2023-03-15T11:34:56.577Z,3892.00
2023-03-15T11:35:56.629Z,4092.00
2023-03-15T11:37:07.658Z,4336.00
2023-03-15T11:38:06.212Z,4560.00
2023-03-15T11:38:56.791Z,4612.00
2023-03-15T11:40:08.750Z,4632.00
2023-03-15T11:40:56.828Z,4748.00
2023-03-15T11:41:56.780Z,4688.00
2023-03-15T11:42:56.828Z,4708.00
2023-03-15T11:43:56.907Z,4776.00
2023-03-15T11:44:57.161Z,4800.00
2023-03-15T11:45:56.911Z,4896.00
2023-03-15T11:47:57.165Z,4596.00
2023-03-15T11:48:56.992Z,4196.00
2023-03-15T11:49:57.053Z,3996.00
2023-03-15T11:50:57.023Z,3904.00
2023-03-15T11:51:57.435Z,3880.00
2023-03-15T11:52:57.210Z,3912.00
2023-03-15T11:53:57.143Z,3988.00
2023-03-15T11:55:57.260Z,4064.00
2023-03-15T11:56:57.211Z,3788.00
2023-03-15T11:57:57.246Z,3300.00
2023-03-15T11:59:59.001Z,2620.00
2023-03-15T12:00:57.399Z,2448.00
2023-03-15T12:01:57.624Z,2256.00
2023-03-15T12:02:57.609Z,2164.00
2023-03-15T12:03:57.425Z,2120.00
2023-03-15T12:05:01.767Z,2120.00
2023-03-15T12:05:57.477Z,2188.00
2023-03-15T12:06:57.532Z,2284.00
2023-03-15T12:07:57.554Z,2372.00
2023-03-15T12:08:57.581Z,2404.00
2023-03-15T12:09:57.698Z,2368.00
2023-03-15T12:10:57.661Z,2484.00
2023-03-15T12:11:57.687Z,2556.00
2023-03-15T12:12:57.694Z,2392.00
2023-03-15T12:13:57.699Z,2444.00
2023-03-15T12:15:02.929Z,2456.00
2023-03-15T12:15:57.971Z,2540.00
2023-03-15T12:16:57.973Z,2480.00
2023-03-15T12:17:58.183Z,2476.00
2023-03-15T12:19:10.003Z,2452.00
2023-03-15T12:20:01.548Z,2604.00
2023-03-15T12:20:57.888Z,2684.00
2023-03-15T12:21:57.904Z,2784.00
2023-03-15T12:22:58.443Z,2936.00
2023-03-15T12:23:58.029Z,3108.00
2023-03-15T12:24:58.020Z,3276.00
2023-03-15T12:25:58.062Z,3340.00
2023-03-15T12:26:58.154Z,3604.00
2023-03-15T12:27:58.085Z,3644.00
2023-03-15T12:28:58.126Z,3660.00
2023-03-15T12:29:58.704Z,3736.00
2023-03-15T12:30:58.197Z,3692.00
2023-03-15T12:31:58.210Z,3812.00
2023-03-15T12:32:58.364Z,4016.00
2023-03-15T12:33:58.328Z,4296.00
2023-03-15T12:34:58.305Z,4444.00
2023-03-15T12:35:58.372Z,4420.00
2023-03-15T12:36:58.347Z,4484.00
2023-03-15T12:37:58.370Z,4524.00
2023-03-15T12:38:58.405Z,4564.00
2023-03-15T12:39:58.441Z,4596.00
2023-03-15T12:40:58.666Z,4660.00
2023-03-15T12:41:58.501Z,4632.00
2023-03-15T12:42:58.802Z,4612.00
2023-03-15T12:43:58.550Z,4544.00
2023-03-15T12:44:58.572Z,4448.00
2023-03-15T12:45:58.637Z,4292.00
2023-03-15T12:46:58.636Z,4132.00
2023-03-15T12:47:58.654Z,4008.00
2023-03-15T12:48:58.684Z,3824.00
2023-03-15T12:49:58.943Z,3728.00
2023-03-15T12:50:58.784Z,3764.00
2023-03-15T12:51:59.486Z,3840.00
2023-03-15T12:52:58.813Z,3852.00
2023-03-15T12:53:58.817Z,3844.00
2023-03-15T12:54:58.861Z,3972.00
2023-03-15T12:56:08.055Z,4164.00
2023-03-15T12:56:58.920Z,4344.00
2023-03-15T12:57:58.949Z,4424.00
2023-03-15T12:58:58.965Z,4152.00
2023-03-15T12:59:59.284Z,4144.00
2023-03-15T13:00:59.025Z,4100.00
2023-03-15T13:01:59.048Z,3884.00
2023-03-15T13:03:01.896Z,3952.00
2023-03-15T13:03:59.145Z,3868.00
2023-03-15T13:04:59.156Z,3728.00
2023-03-15T13:06:03.894Z,3588.00
2023-03-15T13:06:59.224Z,3668.00
2023-03-15T13:07:59.237Z,3532.00
2023-03-15T13:08:59.274Z,3544.00
2023-03-15T13:09:59.294Z,3448.00
2023-03-15T13:10:59.325Z,3156.00
2023-03-15T13:11:59.349Z,2976.00
2023-03-15T13:12:59.389Z,2892.00
2023-03-15T13:13:59.419Z,2720.00
2023-03-15T13:14:59.429Z,2724.00
2023-03-15T13:15:59.856Z,2736.00
2023-03-15T13:16:59.503Z,2720.00
2023-03-15T13:18:01.629Z,2456.00
2023-03-15T13:19:00.197Z,2472.00
2023-03-15T13:20:01.631Z,2524.00
2023-03-15T13:21:02.785Z,2684.00
2023-03-15T13:22:00.482Z,2712.00
2023-03-15T13:22:59.677Z,2892.00
2023-03-15T13:23:59.773Z,3084.00
2023-03-15T13:24:59.757Z,3092.00
2023-03-15T13:25:59.740Z,3056.00
2023-03-15T13:26:59.809Z,3004.00
2023-03-15T13:28:00.125Z,3312.00
2023-03-15T13:28:59.901Z,3200.00
2023-03-15T13:29:59.883Z,3296.00
2023-03-15T13:30:59.930Z,3464.00
2023-03-15T13:31:59.917Z,3440.00
2023-03-15T13:32:59.991Z,3544.00
2023-03-15T13:34:00.035Z,3688.00
2023-03-15T13:35:00.325Z,3936.00